ARG1360 SABE-SKBO
Flight info
| Callsign | ARG1360 |
|---|---|
| Flight time | N/A |
| Altitude | 34000 |
| Route | BIVAM4B BIVAM UN775 PILCO UM784 ILPAN/N0466F360 UM784 LOKOX UL417 BUTAN/N0461F370 UW89 VVC/N0418F240 W17 EGEPI EGEPI3T |
| Aircraft | B38M/M-SDE1FGHILORVWXY/HB1 |
Departure
| Time | 2026-05-06 17:26 |
|---|---|
| Airport | Aeroparque Jorge Newbery (SABE) |
Arrival
| Time | N/A |
|---|---|
| Airport | El Dorado International Airport (SKBO) |
| Time | Latitude | Longitude | Altitude | Speed | Heading |
|---|---|---|---|---|---|
| 2026-05-06 16:47 | -34.55784 | -58.41284 | 29 ft | 0 kts | 40° |
| 2026-05-06 17:13 | -34.55791 | -58.41291 | 29 ft | 4 kts | 34° |
| 2026-05-06 17:13 | -34.55813 | -58.41301 | 29 ft | 4 kts | 349° |
| 2026-05-06 17:13 | -34.55832 | -58.41286 | 29 ft | 2 kts | 303° |
| 2026-05-06 17:14 | -34.55833 | -58.41285 | 29 ft | 2 kts | 303° |
| 2026-05-06 17:19 | -34.55831 | -58.41288 | 29 ft | 1 kts | 302° |
| 2026-05-06 17:20 | -34.55824 | -58.41301 | 29 ft | 2 kts | 302° |
| 2026-05-06 17:20 | -34.55813 | -58.41322 | 29 ft | 4 kts | 302° |
| 2026-05-06 17:20 | -34.55798 | -58.41352 | 29 ft | 5 kts | 302° |
| 2026-05-06 17:20 | -34.55778 | -58.41391 | 29 ft | 6 kts | 302° |
| 2026-05-06 17:21 | -34.55754 | -58.41437 | 29 ft | 7 kts | 298° |
| 2026-05-06 17:21 | -34.55732 | -58.41493 | 29 ft | 8 kts | 290° |
| 2026-05-06 17:21 | -34.55742 | -58.41555 | 29 ft | 8 kts | 227° |
| 2026-05-06 17:21 | -34.55779 | -58.41608 | 29 ft | 9 kts | 252° |
| 2026-05-06 17:22 | -34.55765 | -58.41681 | 29 ft | 10 kts | 294° |
| 2026-05-06 17:22 | -34.55734 | -58.41759 | 28 ft | 11 kts | 296° |
| 2026-05-06 17:22 | -34.55696 | -58.41843 | 28 ft | 12 kts | 303° |
| 2026-05-06 17:22 | -34.55650 | -58.41925 | 29 ft | 12 kts | 307° |
| 2026-05-06 17:23 | -34.55598 | -58.42003 | 29 ft | 12 kts | 307° |
| 2026-05-06 17:23 | -34.55544 | -58.42090 | 29 ft | 13 kts | 306° |
| 2026-05-06 17:23 | -34.55490 | -58.42180 | 29 ft | 14 kts | 306° |
| 2026-05-06 17:23 | -34.55431 | -58.42278 | 29 ft | 15 kts | 306° |
| 2026-05-06 17:24 | -34.55373 | -58.42385 | 29 ft | 16 kts | 294° |
| 2026-05-06 17:24 | -34.55376 | -58.42494 | 29 ft | 11 kts | 231° |
| 2026-05-06 17:24 | -34.55416 | -58.42490 | 29 ft | 0 kts | 125° |
| 2026-05-06 17:24 | -34.55419 | -58.42486 | 29 ft | 1 kts | 124° |
| 2026-05-06 17:25 | -34.55425 | -58.42474 | 29 ft | 2 kts | 123° |
| 2026-05-06 17:25 | -34.55539 | -58.42265 | 31 ft | 67 kts | 123° |
| 2026-05-06 17:25 | -34.55935 | -58.41551 | 27 ft | 135 kts | 124° |
| 2026-05-06 17:25 | -34.56549 | -58.40444 | 135 ft | 179 kts | 123° |
| 2026-05-06 17:26 | -34.57262 | -58.39132 | 800 ft | 191 kts | 115° |
| 2026-05-06 17:26 | -34.57627 | -58.37504 | 1339 ft | 214 kts | 81° |
| 2026-05-06 17:26 | -34.57063 | -58.35870 | 1889 ft | 219 kts | 40° |
| 2026-05-06 17:26 | -34.55727 | -58.34990 | 2507 ft | 213 kts | 9° |
| 2026-05-06 17:27 | -34.54306 | -58.34419 | 3394 ft | 225 kts | 19° |
| 2026-05-06 17:27 | -34.52853 | -58.33542 | 4030 ft | 240 kts | 21° |
| 2026-05-06 17:27 | -34.51348 | -58.32572 | 4774 ft | 249 kts | 22° |
| 2026-05-06 17:27 | -34.49820 | -58.31547 | 5634 ft | 253 kts | 22° |
| 2026-05-06 17:28 | -34.48300 | -58.30508 | 6479 ft | 256 kts | 23° |
| 2026-05-06 17:28 | -34.46742 | -58.29444 | 7260 ft | 258 kts | 20° |
| 2026-05-06 17:28 | -34.45045 | -58.28945 | 8035 ft | 249 kts | 354° |
| 2026-05-06 17:28 | -34.43371 | -58.29438 | 8752 ft | 251 kts | 332° |
| 2026-05-06 17:29 | -34.41891 | -58.30580 | 9523 ft | 255 kts | 327° |
| 2026-05-06 17:29 | -34.40411 | -58.31808 | 10151 ft | 263 kts | 326° |
| 2026-05-06 17:29 | -34.38862 | -58.33129 | 10449 ft | 283 kts | 324° |
| 2026-05-06 17:29 | -34.37207 | -58.34562 | 10696 ft | 302 kts | 324° |
| 2026-05-06 17:30 | -34.35456 | -58.36093 | 11026 ft | 318 kts | 324° |
| 2026-05-06 17:30 | -34.33671 | -58.37663 | 11517 ft | 325 kts | 323° |
| 2026-05-06 17:30 | -34.31839 | -58.39280 | 12211 ft | 327 kts | 323° |
| 2026-05-06 17:30 | -34.29990 | -58.40913 | 12824 ft | 331 kts | 323° |
| 2026-05-06 17:31 | -34.28119 | -58.42565 | 13450 ft | 334 kts | 323° |
| 2026-05-06 17:31 | -34.26230 | -58.44232 | 13968 ft | 339 kts | 323° |
| 2026-05-06 17:31 | -34.24324 | -58.45914 | 14574 ft | 338 kts | 322° |
| 2026-05-06 17:31 | -34.22433 | -58.47582 | 15260 ft | 337 kts | 322° |
| 2026-05-06 17:32 | -34.20527 | -58.49262 | 15766 ft | 341 kts | 322° |
| 2026-05-06 17:32 | -34.18605 | -58.50955 | 16311 ft | 343 kts | 322° |
| 2026-05-06 17:32 | -34.16669 | -58.52660 | 16827 ft | 346 kts | 322° |
| 2026-05-06 17:32 | -34.14744 | -58.54354 | 17345 ft | 349 kts | 322° |
| 2026-05-06 17:33 | -34.12888 | -58.56237 | 17838 ft | 349 kts | 309° |
| 2026-05-06 17:33 | -34.11593 | -58.58709 | 18320 ft | 351 kts | 297° |
| 2026-05-06 17:33 | -34.10478 | -58.61341 | 18695 ft | 354 kts | 297° |
| 2026-05-06 17:33 | -34.09376 | -58.64008 | 19137 ft | 356 kts | 297° |
| 2026-05-06 17:34 | -34.08281 | -58.66701 | 19574 ft | 359 kts | 296° |
| 2026-05-06 17:34 | -34.07187 | -58.69416 | 20028 ft | 361 kts | 296° |
| 2026-05-06 17:34 | -34.06091 | -58.72148 | 20476 ft | 363 kts | 296° |
| 2026-05-06 17:34 | -34.04991 | -58.74898 | 20917 ft | 365 kts | 296° |
| 2026-05-06 17:35 | -34.03899 | -58.77628 | 21338 ft | 367 kts | 296° |
| 2026-05-06 17:35 | -34.02786 | -58.80410 | 21761 ft | 370 kts | 296° |
| 2026-05-06 17:35 | -34.01665 | -58.83208 | 22180 ft | 372 kts | 296° |
| 2026-05-06 17:36 | -33.99402 | -58.88853 | 23011 ft | 376 kts | 296° |
| 2026-05-06 17:36 | -33.98150 | -58.91630 | 23390 ft | 378 kts | 306° |
| 2026-05-06 17:36 | -33.96303 | -58.93885 | 23728 ft | 382 kts | 322° |
| 2026-05-06 17:36 | -33.93937 | -58.95395 | 24033 ft | 391 kts | 336° |
| 2026-05-06 17:37 | -33.91337 | -58.96406 | 24375 ft | 394 kts | 338° |
| 2026-05-06 17:37 | -33.88745 | -58.97364 | 24674 ft | 397 kts | 339° |
| 2026-05-06 17:37 | -33.86091 | -58.98313 | 25010 ft | 399 kts | 339° |
| 2026-05-06 17:37 | -33.83421 | -58.99247 | 25324 ft | 401 kts | 339° |
| 2026-05-06 17:38 | -33.80732 | -59.00176 | 25639 ft | 403 kts | 339° |
| 2026-05-06 17:38 | -33.78031 | -59.01104 | 25944 ft | 405 kts | 339° |
| 2026-05-06 17:38 | -33.75309 | -59.02036 | 26225 ft | 407 kts | 339° |
| 2026-05-06 17:38 | -33.72576 | -59.02972 | 26516 ft | 410 kts | 339° |
| 2026-05-06 17:39 | -33.69828 | -59.03911 | 26834 ft | 411 kts | 339° |
| 2026-05-06 17:39 | -33.67074 | -59.04852 | 27176 ft | 412 kts | 339° |
| 2026-05-06 17:39 | -33.64346 | -59.05784 | 27449 ft | 414 kts | 339° |
| 2026-05-06 17:39 | -33.61569 | -59.06731 | 27731 ft | 416 kts | 339° |
| 2026-05-06 17:40 | -33.58777 | -59.07683 | 28013 ft | 418 kts | 339° |
| 2026-05-06 17:40 | -33.55972 | -59.08639 | 28283 ft | 420 kts | 339° |
| 2026-05-06 17:40 | -33.53150 | -59.09600 | 28555 ft | 423 kts | 339° |
| 2026-05-06 17:40 | -33.50316 | -59.10564 | 28806 ft | 425 kts | 339° |
| 2026-05-06 17:41 | -33.47469 | -59.11533 | 29079 ft | 426 kts | 339° |
| 2026-05-06 17:41 | -33.44607 | -59.12505 | 29351 ft | 428 kts | 339° |
| 2026-05-06 17:41 | -33.41774 | -59.13467 | 29610 ft | 430 kts | 339° |
| 2026-05-06 17:41 | -33.38890 | -59.14446 | 29860 ft | 432 kts | 339° |
| 2026-05-06 17:42 | -33.35995 | -59.15428 | 30087 ft | 433 kts | 339° |
| 2026-05-06 17:42 | -33.33098 | -59.16410 | 30360 ft | 433 kts | 338° |
| 2026-05-06 17:42 | -33.30201 | -59.17391 | 30649 ft | 432 kts | 338° |
| 2026-05-06 17:42 | -33.27312 | -59.18369 | 30981 ft | 431 kts | 338° |
| 2026-05-06 17:43 | -33.24435 | -59.19342 | 31325 ft | 429 kts | 338° |
| 2026-05-06 17:43 | -33.21567 | -59.20311 | 31665 ft | 427 kts | 337° |
| 2026-05-06 17:43 | -33.18751 | -59.21262 | 31994 ft | 426 kts | 337° |
| 2026-05-06 17:43 | -33.15909 | -59.22222 | 32332 ft | 424 kts | 336° |
| 2026-05-06 17:44 | -33.13078 | -59.23176 | 32652 ft | 422 kts | 336° |
| 2026-05-06 17:44 | -33.10262 | -59.24126 | 32987 ft | 420 kts | 336° |
| 2026-05-06 17:44 | -33.07456 | -59.25071 | 33319 ft | 418 kts | 335° |
| 2026-05-06 17:44 | -33.04665 | -59.26010 | 33646 ft | 416 kts | 335° |
| 2026-05-06 17:45 | -33.01881 | -59.26946 | 33795 ft | 416 kts | 335° |
| 2026-05-06 17:45 | -32.99099 | -59.27880 | 33770 ft | 414 kts | 335° |
| 2026-05-06 17:45 | -32.93613 | -59.29723 | 33778 ft | 413 kts | 335° |
| 2026-05-06 17:46 | -32.88093 | -59.31574 | 33775 ft | 412 kts | 335° |
| 2026-05-06 17:46 | -32.82590 | -59.33417 | 33776 ft | 410 kts | 335° |
| 2026-05-06 17:47 | -32.77104 | -59.35253 | 33779 ft | 410 kts | 335° |
| 2026-05-06 17:47 | -32.71617 | -59.37086 | 33756 ft | 410 kts | 335° |
| 2026-05-06 17:48 | -32.66172 | -59.38903 | 33767 ft | 409 kts | 334° |
| 2026-05-06 17:48 | -32.60696 | -59.40728 | 33776 ft | 409 kts | 334° |
| 2026-05-06 17:49 | -32.55222 | -59.42550 | 33773 ft | 409 kts | 334° |
| 2026-05-06 17:49 | -32.49744 | -59.44371 | 33775 ft | 409 kts | 334° |
| 2026-05-06 17:50 | -32.44299 | -59.46170 | 33776 ft | 409 kts | 335° |
| 2026-05-06 17:50 | -32.38799 | -59.47925 | 33776 ft | 409 kts | 335° |
| 2026-05-06 17:51 | -32.33301 | -59.49682 | 33773 ft | 409 kts | 335° |
| 2026-05-06 17:51 | -32.27802 | -59.51440 | 33753 ft | 409 kts | 335° |
| 2026-05-06 17:52 | -32.22305 | -59.53193 | 33768 ft | 409 kts | 335° |
| 2026-05-06 17:52 | -32.16852 | -59.54930 | 33776 ft | 409 kts | 335° |
| 2026-05-06 17:53 | -32.11360 | -59.56678 | 33776 ft | 409 kts | 335° |
| 2026-05-06 17:53 | -32.05871 | -59.58423 | 33755 ft | 409 kts | 334° |
| 2026-05-06 17:54 | -32.00381 | -59.60166 | 33789 ft | 408 kts | 334° |
| 2026-05-06 17:54 | -31.94948 | -59.61888 | 33771 ft | 406 kts | 335° |
| 2026-05-06 17:55 | -31.89495 | -59.63615 | 33772 ft | 406 kts | 335° |
| 2026-05-06 17:55 | -31.84039 | -59.65342 | 33762 ft | 406 kts | 334° |
| 2026-05-06 17:56 | -31.78582 | -59.67065 | 33778 ft | 406 kts | 334° |
| 2026-05-06 17:56 | -31.73124 | -59.68787 | 33775 ft | 406 kts | 334° |
| 2026-05-06 17:57 | -31.67704 | -59.70495 | 33774 ft | 406 kts | 334° |
| 2026-05-06 17:57 | -31.62245 | -59.72214 | 33746 ft | 406 kts | 334° |
| 2026-05-06 17:58 | -31.56784 | -59.73930 | 33774 ft | 407 kts | 334° |
| 2026-05-06 17:58 | -31.51324 | -59.75644 | 33774 ft | 406 kts | 334° |
| 2026-05-06 17:59 | -31.45865 | -59.77356 | 33776 ft | 406 kts | 334° |
| 2026-05-06 17:59 | -31.40442 | -59.79055 | 33748 ft | 406 kts | 334° |
| 2026-05-06 18:00 | -31.34979 | -59.80764 | 33780 ft | 406 kts | 334° |
| 2026-05-06 18:00 | -31.29522 | -59.82469 | 33781 ft | 406 kts | 334° |
| 2026-05-06 18:01 | -31.24063 | -59.84173 | 33775 ft | 406 kts | 334° |
| 2026-05-06 18:01 | -31.18639 | -59.85864 | 33746 ft | 406 kts | 334° |
| 2026-05-06 18:02 | -31.13176 | -59.87566 | 33778 ft | 407 kts | 334° |
| 2026-05-06 18:02 | -31.07705 | -59.89267 | 33793 ft | 406 kts | 334° |
| 2026-05-06 18:03 | -31.02264 | -59.90966 | 33780 ft | 404 kts | 334° |
| 2026-05-06 18:03 | -30.96872 | -59.92669 | 33779 ft | 404 kts | 334° |
| 2026-05-06 18:04 | -30.91440 | -59.94383 | 33772 ft | 405 kts | 334° |
| 2026-05-06 18:04 | -30.85993 | -59.96098 | 33770 ft | 405 kts | 334° |
| 2026-05-06 18:05 | -30.80554 | -59.97809 | 33770 ft | 405 kts | 334° |
| 2026-05-06 18:05 | -30.75150 | -59.99507 | 33775 ft | 405 kts | 334° |
| 2026-05-06 18:06 | -30.69703 | -60.01217 | 33766 ft | 406 kts | 334° |
| 2026-05-06 18:06 | -30.64237 | -60.02930 | 33776 ft | 407 kts | 334° |
| 2026-05-06 18:07 | -30.58774 | -60.04641 | 33773 ft | 407 kts | 334° |
| 2026-05-06 18:07 | -30.53348 | -60.06338 | 33771 ft | 407 kts | 334° |
| 2026-05-06 18:08 | -30.47883 | -60.08046 | 33755 ft | 408 kts | 334° |
| 2026-05-06 18:08 | -30.42383 | -60.09762 | 33768 ft | 409 kts | 334° |
| 2026-05-06 18:09 | -30.36883 | -60.11476 | 33769 ft | 409 kts | 334° |
| 2026-05-06 18:09 | -30.31386 | -60.13187 | 33772 ft | 409 kts | 334° |
| 2026-05-06 18:10 | -30.25925 | -60.14885 | 33775 ft | 409 kts | 334° |
| 2026-05-06 18:10 | -30.20428 | -60.16594 | 33773 ft | 409 kts | 334° |
| 2026-05-06 18:11 | -30.14936 | -60.18299 | 33772 ft | 408 kts | 334° |
| 2026-05-06 18:11 | -30.09479 | -60.19992 | 33770 ft | 406 kts | 334° |
| 2026-05-06 18:12 | -30.04016 | -60.21685 | 33740 ft | 407 kts | 334° |
| 2026-05-06 18:12 | -29.98567 | -60.23371 | 33776 ft | 409 kts | 334° |
| 2026-05-06 18:13 | -29.93070 | -60.25070 | 33774 ft | 409 kts | 334° |
| 2026-05-06 18:13 | -29.87575 | -60.26767 | 33769 ft | 409 kts | 334° |
| 2026-05-06 18:14 | -29.82080 | -60.28462 | 33733 ft | 409 kts | 334° |
| 2026-05-06 18:14 | -29.76609 | -60.30147 | 33767 ft | 411 kts | 334° |
| 2026-05-06 18:15 | -29.71082 | -60.31848 | 33766 ft | 411 kts | 334° |
| 2026-05-06 18:15 | -29.65563 | -60.33544 | 33769 ft | 411 kts | 334° |
| 2026-05-06 18:16 | -29.60040 | -60.35240 | 33765 ft | 411 kts | 334° |
| 2026-05-06 18:16 | -29.54551 | -60.36923 | 33762 ft | 412 kts | 334° |
| 2026-05-06 18:17 | -29.49015 | -60.38619 | 33766 ft | 412 kts | 334° |
| 2026-05-06 18:17 | -29.43479 | -60.40314 | 33767 ft | 412 kts | 334° |
| 2026-05-06 18:18 | -29.37942 | -60.42005 | 33764 ft | 412 kts | 334° |
| 2026-05-06 18:18 | -29.32442 | -60.43683 | 33741 ft | 413 kts | 335° |
| 2026-05-06 18:19 | -29.26875 | -60.45380 | 33764 ft | 414 kts | 335° |
| 2026-05-06 18:19 | -29.21313 | -60.47073 | 33766 ft | 413 kts | 335° |
| 2026-05-06 18:20 | -29.15783 | -60.48755 | 33764 ft | 411 kts | 335° |
| 2026-05-06 18:20 | -29.10289 | -60.50424 | 33733 ft | 411 kts | 335° |
| 2026-05-06 18:21 | -29.04735 | -60.52110 | 33758 ft | 414 kts | 335° |
| 2026-05-06 18:21 | -28.99171 | -60.53796 | 33757 ft | 413 kts | 335° |
| 2026-05-06 18:22 | -28.93607 | -60.55481 | 33758 ft | 413 kts | 335° |
| 2026-05-06 18:22 | -28.88083 | -60.57152 | 33736 ft | 413 kts | 335° |
| 2026-05-06 18:23 | -28.82515 | -60.58834 | 33755 ft | 415 kts | 335° |
| 2026-05-06 18:23 | -28.76934 | -60.60512 | 33754 ft | 415 kts | 335° |
| 2026-05-06 18:24 | -28.71348 | -60.62178 | 33755 ft | 415 kts | 335° |
| 2026-05-06 18:24 | -28.65764 | -60.63841 | 33752 ft | 415 kts | 335° |
| 2026-05-06 18:25 | -28.60209 | -60.65494 | 33745 ft | 416 kts | 335° |
| 2026-05-06 18:25 | -28.54606 | -60.67161 | 33747 ft | 416 kts | 335° |
| 2026-05-06 18:26 | -28.49001 | -60.68825 | 33752 ft | 416 kts | 335° |
| 2026-05-06 18:26 | -28.43397 | -60.70488 | 33746 ft | 416 kts | 335° |
| 2026-05-06 18:27 | -28.37789 | -60.72149 | 33725 ft | 417 kts | 335° |
| 2026-05-06 18:27 | -28.32194 | -60.73806 | 33752 ft | 419 kts | 335° |
| 2026-05-06 18:28 | -28.26558 | -60.75472 | 33754 ft | 418 kts | 335° |
| 2026-05-06 18:28 | -28.20935 | -60.77133 | 33746 ft | 417 kts | 335° |
| 2026-05-06 18:29 | -28.15318 | -60.78790 | 33731 ft | 417 kts | 335° |
| 2026-05-06 18:29 | -28.09730 | -60.80437 | 33750 ft | 419 kts | 335° |
| 2026-05-06 18:30 | -28.04093 | -60.82097 | 33752 ft | 418 kts | 335° |
| 2026-05-06 18:30 | -27.98461 | -60.83753 | 33752 ft | 418 kts | 335° |
| 2026-05-06 18:31 | -27.92827 | -60.85408 | 33752 ft | 418 kts | 335° |
| 2026-05-06 18:31 | -27.87231 | -60.87050 | 33749 ft | 419 kts | 335° |
| 2026-05-06 18:32 | -27.81594 | -60.88703 | 33750 ft | 418 kts | 335° |
| 2026-05-06 18:32 | -27.75957 | -60.90353 | 33749 ft | 418 kts | 335° |
| 2026-05-06 18:33 | -27.70321 | -60.92002 | 33749 ft | 418 kts | 335° |
| 2026-05-06 18:33 | -27.64723 | -60.93638 | 33739 ft | 419 kts | 336° |
| 2026-05-06 18:34 | -27.59068 | -60.95297 | 33746 ft | 419 kts | 335° |
| 2026-05-06 18:34 | -27.53442 | -60.97025 | 33748 ft | 419 kts | 335° |
| 2026-05-06 18:35 | -27.47814 | -60.98747 | 33745 ft | 419 kts | 335° |
| 2026-05-06 18:35 | -27.42187 | -61.00465 | 33722 ft | 419 kts | 335° |
| 2026-05-06 18:36 | -27.36593 | -61.02172 | 33747 ft | 420 kts | 335° |
| 2026-05-06 18:36 | -27.30954 | -61.03891 | 33750 ft | 420 kts | 335° |
| 2026-05-06 18:37 | -27.26261 | -61.05288 | 33751 ft | 419 kts | 336° |
| 2026-05-06 18:37 | -27.19672 | -61.07215 | 33750 ft | 418 kts | 336° |
| 2026-05-06 18:38 | -27.14073 | -61.08854 | 33747 ft | 419 kts | 336° |
| 2026-05-06 18:38 | -27.08428 | -61.10504 | 33744 ft | 419 kts | 336° |
| 2026-05-06 18:39 | -27.02783 | -61.12153 | 33747 ft | 419 kts | 336° |
| 2026-05-06 18:40 | -26.94316 | -61.14623 | 33747 ft | 419 kts | 336° |
| 2026-05-06 18:40 | -26.88701 | -61.16258 | 33742 ft | 421 kts | 337° |
| 2026-05-06 18:41 | -26.83031 | -61.17908 | 33749 ft | 421 kts | 337° |
| 2026-05-06 18:41 | -26.77363 | -61.19556 | 33758 ft | 421 kts | 337° |
| 2026-05-06 18:42 | -26.71698 | -61.21201 | 33750 ft | 421 kts | 337° |
| 2026-05-06 18:42 | -26.66026 | -61.22846 | 33729 ft | 422 kts | 338° |
| 2026-05-06 18:43 | -26.60364 | -61.24488 | 33750 ft | 424 kts | 338° |
| 2026-05-06 18:43 | -26.54659 | -61.26139 | 33752 ft | 423 kts | 338° |
| 2026-05-06 18:44 | -26.48952 | -61.27789 | 33749 ft | 424 kts | 338° |
| 2026-05-06 18:44 | -26.43248 | -61.29436 | 33748 ft | 424 kts | 338° |
| 2026-05-06 18:45 | -26.37560 | -61.31077 | 33746 ft | 427 kts | 338° |
| 2026-05-06 18:45 | -26.31794 | -61.32738 | 33747 ft | 428 kts | 338° |
| 2026-05-06 18:46 | -26.26036 | -61.34395 | 33765 ft | 427 kts | 338° |
| 2026-05-06 18:46 | -26.20310 | -61.36042 | 33752 ft | 424 kts | 338° |
| 2026-05-06 18:47 | -26.14625 | -61.37675 | 33728 ft | 427 kts | 338° |
| 2026-05-06 18:47 | -26.08845 | -61.39334 | 33741 ft | 429 kts | 338° |
| 2026-05-06 18:48 | -26.03064 | -61.40991 | 33747 ft | 429 kts | 338° |
| 2026-05-06 18:48 | -25.97281 | -61.42647 | 33749 ft | 429 kts | 338° |
| 2026-05-06 18:49 | -25.91497 | -61.44302 | 33734 ft | 429 kts | 338° |
| 2026-05-06 18:49 | -25.85740 | -61.45948 | 33757 ft | 431 kts | 338° |
| 2026-05-06 18:50 | -25.79930 | -61.47606 | 33742 ft | 431 kts | 338° |
| 2026-05-06 18:50 | -25.74117 | -61.49264 | 33745 ft | 431 kts | 338° |
| 2026-05-06 18:51 | -25.68307 | -61.50920 | 33747 ft | 431 kts | 338° |
| 2026-05-06 18:51 | -25.62530 | -61.52565 | 33744 ft | 432 kts | 338° |
| 2026-05-06 18:52 | -25.56690 | -61.54225 | 33748 ft | 433 kts | 338° |
| 2026-05-06 18:52 | -25.50852 | -61.55883 | 33752 ft | 433 kts | 338° |
| 2026-05-06 18:53 | -25.45016 | -61.57540 | 33752 ft | 433 kts | 338° |
| 2026-05-06 18:53 | -25.39214 | -61.59184 | 33749 ft | 433 kts | 338° |
| 2026-05-06 18:54 | -25.33378 | -61.60837 | 33749 ft | 433 kts | 338° |
| 2026-05-06 18:54 | -25.27541 | -61.62489 | 33749 ft | 433 kts | 338° |
| 2026-05-06 18:55 | -25.21702 | -61.64139 | 33752 ft | 433 kts | 338° |
| 2026-05-06 18:55 | -25.15903 | -61.65777 | 33752 ft | 433 kts | 338° |
| 2026-05-06 18:56 | -25.10058 | -61.67426 | 33753 ft | 435 kts | 338° |
| 2026-05-06 18:56 | -25.05181 | -61.68800 | 33750 ft | 435 kts | 338° |
| 2026-05-06 18:57 | -24.99319 | -61.70451 | 33751 ft | 435 kts | 338° |
| 2026-05-06 18:57 | -24.93459 | -61.72100 | 33750 ft | 435 kts | 338° |
| 2026-05-06 18:58 | -24.86646 | -61.74014 | 33730 ft | 435 kts | 338° |
| 2026-05-06 18:58 | -24.81709 | -61.75401 | 33753 ft | 438 kts | 338° |
| 2026-05-06 18:59 | -24.75846 | -61.77046 | 33748 ft | 438 kts | 338° |
| 2026-05-06 18:59 | -24.69945 | -61.78700 | 33749 ft | 438 kts | 338° |
| 2026-05-06 19:00 | -24.64045 | -61.80352 | 33749 ft | 438 kts | 338° |
| 2026-05-06 19:00 | -24.58137 | -61.82005 | 33751 ft | 440 kts | 338° |
| 2026-05-06 19:01 | -24.52197 | -61.83665 | 33754 ft | 441 kts | 338° |
| 2026-05-06 19:01 | -24.46295 | -61.85313 | 33753 ft | 441 kts | 338° |
| 2026-05-06 19:02 | -24.40353 | -61.86971 | 33751 ft | 441 kts | 338° |
| 2026-05-06 19:02 | -24.34411 | -61.88626 | 33739 ft | 440 kts | 338° |
| 2026-05-06 19:03 | -24.28462 | -61.90283 | 33750 ft | 441 kts | 338° |
| 2026-05-06 19:03 | -24.22515 | -61.91937 | 33749 ft | 441 kts | 339° |
| 2026-05-06 19:04 | -24.16616 | -61.93576 | 33752 ft | 439 kts | 339° |
| 2026-05-06 19:04 | -24.10713 | -61.95215 | 33751 ft | 438 kts | 339° |
| 2026-05-06 19:05 | -24.04795 | -61.96855 | 33750 ft | 440 kts | 339° |
| 2026-05-06 19:05 | -23.98852 | -61.98501 | 33751 ft | 441 kts | 339° |
| 2026-05-06 19:06 | -23.92950 | -62.00134 | 33750 ft | 441 kts | 339° |
| 2026-05-06 19:06 | -23.87006 | -62.01776 | 33752 ft | 440 kts | 339° |
| 2026-05-06 19:07 | -23.81067 | -62.03416 | 33745 ft | 441 kts | 339° |
| 2026-05-06 19:07 | -23.75104 | -62.05061 | 33750 ft | 443 kts | 339° |
| 2026-05-06 19:08 | -23.69175 | -62.06695 | 33749 ft | 443 kts | 339° |
| 2026-05-06 19:08 | -23.63202 | -62.08340 | 33750 ft | 442 kts | 339° |
| 2026-05-06 19:09 | -23.57234 | -62.09981 | 33750 ft | 442 kts | 339° |
| 2026-05-06 19:09 | -23.51258 | -62.11624 | 33746 ft | 445 kts | 339° |
| 2026-05-06 19:10 | -23.45281 | -62.13265 | 33751 ft | 446 kts | 339° |
| 2026-05-06 19:10 | -23.39268 | -62.14914 | 33755 ft | 446 kts | 339° |
| 2026-05-06 19:11 | -23.33256 | -62.16562 | 33752 ft | 446 kts | 339° |
| 2026-05-06 19:11 | -23.27241 | -62.18208 | 33736 ft | 446 kts | 339° |
| 2026-05-06 19:12 | -23.21239 | -62.19851 | 33746 ft | 444 kts | 339° |
| 2026-05-06 19:12 | -23.15287 | -62.21477 | 33749 ft | 444 kts | 339° |
| 2026-05-06 19:13 | -23.09296 | -62.23113 | 33753 ft | 444 kts | 339° |
| 2026-05-06 19:13 | -23.03317 | -62.24744 | 33748 ft | 443 kts | 339° |
| 2026-05-06 19:14 | -22.97346 | -62.26371 | 33748 ft | 442 kts | 340° |
| 2026-05-06 19:14 | -22.91425 | -62.27983 | 33749 ft | 442 kts | 340° |
| 2026-05-06 19:15 | -22.85464 | -62.29605 | 33746 ft | 442 kts | 340° |
| 2026-05-06 19:15 | -22.79501 | -62.31226 | 33746 ft | 442 kts | 340° |
| 2026-05-06 19:16 | -22.73543 | -62.32844 | 33746 ft | 442 kts | 340° |
| 2026-05-06 19:16 | -22.67581 | -62.34461 | 33747 ft | 442 kts | 340° |
| 2026-05-06 19:17 | -22.61657 | -62.36067 | 33747 ft | 442 kts | 340° |
| 2026-05-06 19:17 | -22.55697 | -62.37681 | 33744 ft | 441 kts | 340° |
| 2026-05-06 19:18 | -22.49737 | -62.39294 | 33743 ft | 441 kts | 340° |
| 2026-05-06 19:18 | -22.43768 | -62.40908 | 33733 ft | 443 kts | 340° |
| 2026-05-06 19:19 | -22.38101 | -62.43169 | 33771 ft | 433 kts | 327° |
| 2026-05-06 19:19 | -22.32700 | -62.46125 | 33737 ft | 435 kts | 328° |
| 2026-05-06 19:20 | -22.27311 | -62.49109 | 33738 ft | 435 kts | 328° |
| 2026-05-06 19:20 | -22.21926 | -62.52098 | 33749 ft | 435 kts | 328° |
| 2026-05-06 19:21 | -22.16570 | -62.55069 | 33741 ft | 437 kts | 328° |
| 2026-05-06 19:21 | -22.11155 | -62.58071 | 33745 ft | 438 kts | 328° |
| 2026-05-06 19:22 | -22.05738 | -62.61070 | 33734 ft | 438 kts | 328° |
| 2026-05-06 19:22 | -22.00319 | -62.64069 | 33734 ft | 438 kts | 328° |
| 2026-05-06 19:23 | -21.94901 | -62.67063 | 33740 ft | 438 kts | 328° |
| 2026-05-06 19:23 | -21.89500 | -62.70047 | 33733 ft | 442 kts | 329° |
| 2026-05-06 19:24 | -21.84007 | -62.73078 | 33741 ft | 444 kts | 329° |
| 2026-05-06 19:24 | -21.78516 | -62.76106 | 33738 ft | 444 kts | 329° |
| 2026-05-06 19:25 | -21.73023 | -62.79132 | 33733 ft | 444 kts | 329° |
| 2026-05-06 19:25 | -21.67567 | -62.82135 | 33731 ft | 443 kts | 329° |
| 2026-05-06 19:26 | -21.62074 | -62.85156 | 33741 ft | 444 kts | 328° |
| 2026-05-06 19:26 | -21.56575 | -62.88177 | 33738 ft | 444 kts | 328° |
| 2026-05-06 19:27 | -21.51073 | -62.91198 | 33731 ft | 444 kts | 328° |
| 2026-05-06 19:27 | -21.45613 | -62.94193 | 33729 ft | 444 kts | 328° |
| 2026-05-06 19:28 | -21.40113 | -62.97208 | 33722 ft | 444 kts | 328° |
| 2026-05-06 19:28 | -21.34615 | -63.00219 | 33736 ft | 443 kts | 328° |
| 2026-05-06 19:29 | -21.29201 | -63.03348 | 33740 ft | 441 kts | 325° |
| 2026-05-06 19:29 | -21.23914 | -63.06611 | 33736 ft | 441 kts | 326° |
| 2026-05-06 19:30 | -21.18583 | -63.09874 | 33741 ft | 441 kts | 326° |
| 2026-05-06 19:30 | -21.13246 | -63.13136 | 33732 ft | 441 kts | 326° |
| 2026-05-06 19:31 | -21.07914 | -63.16392 | 33741 ft | 441 kts | 326° |
| 2026-05-06 19:31 | -20.99955 | -63.21247 | 33740 ft | 441 kts | 326° |
| 2026-05-06 19:32 | -20.94625 | -63.24495 | 33752 ft | 441 kts | 326° |
| 2026-05-06 19:32 | -20.89291 | -63.27744 | 33751 ft | 441 kts | 326° |
| 2026-05-06 19:33 | -20.83958 | -63.30988 | 33752 ft | 442 kts | 326° |
| 2026-05-06 19:33 | -20.78605 | -63.34243 | 33759 ft | 443 kts | 326° |
| 2026-05-06 19:34 | -20.73286 | -63.37473 | 33774 ft | 443 kts | 326° |
| 2026-05-06 19:34 | -20.67931 | -63.40724 | 33775 ft | 443 kts | 326° |
| 2026-05-06 19:35 | -20.62573 | -63.43972 | 33782 ft | 443 kts | 327° |
| 2026-05-06 19:35 | -20.57225 | -63.47212 | 33772 ft | 442 kts | 327° |
| 2026-05-06 19:36 | -20.51893 | -63.50441 | 33794 ft | 445 kts | 327° |
| 2026-05-06 19:36 | -20.46510 | -63.53698 | 33788 ft | 445 kts | 327° |
| 2026-05-06 19:37 | -20.41126 | -63.56952 | 33783 ft | 444 kts | 327° |
| 2026-05-06 19:37 | -20.35750 | -63.60199 | 33790 ft | 444 kts | 327° |
| 2026-05-06 19:38 | -20.30404 | -63.63426 | 33805 ft | 445 kts | 327° |
| 2026-05-06 19:38 | -20.25007 | -63.66680 | 33828 ft | 446 kts | 327° |
| 2026-05-06 19:39 | -20.19611 | -63.69931 | 33844 ft | 446 kts | 327° |
| 2026-05-06 19:39 | -20.14213 | -63.73181 | 33847 ft | 446 kts | 327° |
| 2026-05-06 19:40 | -20.08849 | -63.76408 | 33808 ft | 446 kts | 327° |
| 2026-05-06 19:40 | -20.03462 | -63.79660 | 33807 ft | 445 kts | 327° |
| 2026-05-06 19:41 | -19.98086 | -63.82923 | 33813 ft | 445 kts | 327° |
| 2026-05-06 19:41 | -19.92708 | -63.86184 | 33815 ft | 445 kts | 327° |
| 2026-05-06 19:42 | -19.87368 | -63.89431 | 33819 ft | 445 kts | 327° |
| 2026-05-06 19:42 | -19.81994 | -63.92697 | 33821 ft | 445 kts | 327° |
| 2026-05-06 19:43 | -19.76613 | -63.95965 | 33810 ft | 445 kts | 326° |
| 2026-05-06 19:43 | -19.71250 | -63.99228 | 33841 ft | 444 kts | 326° |
| 2026-05-06 19:44 | -19.65938 | -64.02472 | 33840 ft | 444 kts | 326° |
| 2026-05-06 19:44 | -19.60589 | -64.05736 | 33848 ft | 443 kts | 326° |
| 2026-05-06 19:45 | -19.55249 | -64.08992 | 33850 ft | 442 kts | 326° |
| 2026-05-06 19:45 | -19.49915 | -64.12240 | 33857 ft | 442 kts | 326° |
| 2026-05-06 19:46 | -19.44610 | -64.15469 | 33852 ft | 443 kts | 326° |
| 2026-05-06 19:46 | -19.39264 | -64.18721 | 33854 ft | 443 kts | 327° |
| 2026-05-06 19:47 | -19.33922 | -64.21967 | 33849 ft | 443 kts | 327° |
| 2026-05-06 19:47 | -19.28576 | -64.25214 | 33864 ft | 443 kts | 327° |
| 2026-05-06 19:48 | -19.23273 | -64.28432 | 33879 ft | 443 kts | 327° |
| 2026-05-06 19:48 | -19.17926 | -64.31673 | 33846 ft | 442 kts | 327° |
| 2026-05-06 19:49 | -19.12586 | -64.34909 | 33857 ft | 443 kts | 327° |
| 2026-05-06 19:49 | -19.07245 | -64.38143 | 33871 ft | 442 kts | 327° |
| 2026-05-06 19:50 | -19.01953 | -64.41345 | 33872 ft | 441 kts | 327° |
| 2026-05-06 19:50 | -18.96622 | -64.44568 | 33864 ft | 442 kts | 327° |
| 2026-05-06 19:51 | -18.91297 | -64.47791 | 33855 ft | 441 kts | 327° |
| 2026-05-06 19:51 | -18.85967 | -64.51032 | 33860 ft | 442 kts | 327° |
| 2026-05-06 19:52 | -18.80639 | -64.54267 | 33856 ft | 441 kts | 327° |
| 2026-05-06 19:52 | -18.75353 | -64.57475 | 33842 ft | 441 kts | 327° |
| 2026-05-06 19:53 | -18.70040 | -64.60695 | 33869 ft | 441 kts | 327° |
| 2026-05-06 19:53 | -18.64703 | -64.63928 | 33833 ft | 442 kts | 327° |
| 2026-05-06 19:54 | -18.59420 | -64.67133 | 33862 ft | 442 kts | 327° |
| 2026-05-06 19:54 | -18.54110 | -64.70380 | 33850 ft | 441 kts | 327° |
| 2026-05-06 19:55 | -18.48795 | -64.73625 | 33847 ft | 441 kts | 327° |
| 2026-05-06 19:55 | -18.43492 | -64.76860 | 33848 ft | 441 kts | 327° |
| 2026-05-06 19:56 | -18.38178 | -64.80100 | 33861 ft | 442 kts | 327° |
| 2026-05-06 19:56 | -18.32885 | -64.83324 | 33849 ft | 443 kts | 327° |
| 2026-05-06 19:57 | -18.27545 | -64.86575 | 33866 ft | 444 kts | 327° |
| 2026-05-06 19:57 | -18.22197 | -64.89828 | 33861 ft | 444 kts | 327° |
| 2026-05-06 19:58 | -18.16853 | -64.93077 | 33885 ft | 444 kts | 327° |
| 2026-05-06 19:58 | -18.11540 | -64.96304 | 33886 ft | 444 kts | 327° |
| 2026-05-06 19:59 | -18.06192 | -64.99550 | 33889 ft | 444 kts | 327° |
| 2026-05-06 19:59 | -18.00845 | -65.02793 | 33894 ft | 444 kts | 327° |
| 2026-05-06 20:00 | -17.95494 | -65.06037 | 33899 ft | 444 kts | 327° |
| 2026-05-06 20:00 | -17.90177 | -65.09258 | 33944 ft | 444 kts | 327° |
| 2026-05-06 20:01 | -17.84823 | -65.12498 | 33931 ft | 444 kts | 327° |
| 2026-05-06 20:01 | -17.79468 | -65.15737 | 33983 ft | 444 kts | 327° |
| 2026-05-06 20:02 | -17.74115 | -65.18973 | 33975 ft | 444 kts | 327° |
| 2026-05-06 20:02 | -17.68800 | -65.22184 | 34014 ft | 444 kts | 327° |
| 2026-05-06 20:03 | -17.63451 | -65.25430 | 34013 ft | 444 kts | 327° |
| 2026-05-06 20:03 | -17.58101 | -65.28677 | 34049 ft | 444 kts | 327° |
| 2026-05-06 20:04 | -17.52757 | -65.31920 | 34057 ft | 443 kts | 327° |
| 2026-05-06 20:04 | -17.47426 | -65.35155 | 34061 ft | 443 kts | 327° |
| 2026-05-06 20:05 | -17.42114 | -65.38387 | 34060 ft | 445 kts | 327° |
| 2026-05-06 20:05 | -17.36753 | -65.41647 | 34028 ft | 445 kts | 327° |
| 2026-05-06 20:06 | -17.31399 | -65.44900 | 34050 ft | 445 kts | 327° |
| 2026-05-06 20:06 | -17.26041 | -65.48153 | 34032 ft | 445 kts | 327° |
| 2026-05-06 20:07 | -17.20720 | -65.51381 | 34036 ft | 445 kts | 327° |
| 2026-05-06 20:07 | -17.15361 | -65.54630 | 34035 ft | 445 kts | 327° |
| 2026-05-06 20:08 | -17.10009 | -65.57875 | 33993 ft | 445 kts | 327° |
| 2026-05-06 20:08 | -17.04660 | -65.61131 | 34009 ft | 445 kts | 327° |
| 2026-05-06 20:09 | -16.99355 | -65.64357 | 34031 ft | 443 kts | 327° |
| 2026-05-06 20:09 | -16.94029 | -65.67594 | 34034 ft | 443 kts | 327° |
| 2026-05-06 20:10 | -16.88697 | -65.70833 | 33998 ft | 444 kts | 327° |
| 2026-05-06 20:10 | -16.83290 | -65.74009 | 33981 ft | 449 kts | 335° |
| 2026-05-06 20:11 | -16.77347 | -65.75954 | 33976 ft | 452 kts | 340° |
| 2026-05-06 20:11 | -16.71334 | -65.77866 | 34011 ft | 452 kts | 340° |
| 2026-05-06 20:12 | -16.65308 | -65.79753 | 33979 ft | 452 kts | 340° |
| 2026-05-06 20:12 | -16.59289 | -65.81634 | 33967 ft | 452 kts | 340° |
| 2026-05-06 20:13 | -16.53289 | -65.83508 | 33983 ft | 454 kts | 340° |
| 2026-05-06 20:13 | -16.47229 | -65.85399 | 33961 ft | 455 kts | 340° |
| 2026-05-06 20:14 | -16.41171 | -65.87289 | 33984 ft | 454 kts | 340° |
| 2026-05-06 20:14 | -16.35115 | -65.89177 | 33957 ft | 454 kts | 340° |
| 2026-05-06 20:15 | -16.29101 | -65.91050 | 33963 ft | 454 kts | 340° |
| 2026-05-06 20:15 | -16.23036 | -65.92938 | 33943 ft | 456 kts | 341° |
| 2026-05-06 20:16 | -16.16961 | -65.94828 | 33942 ft | 455 kts | 341° |
| 2026-05-06 20:16 | -16.10900 | -65.96712 | 33934 ft | 455 kts | 341° |
| 2026-05-06 20:17 | -16.04879 | -65.98583 | 33934 ft | 455 kts | 341° |
| 2026-05-06 20:17 | -15.98816 | -66.00465 | 33933 ft | 455 kts | 341° |
| 2026-05-06 20:18 | -15.92752 | -66.02346 | 33934 ft | 455 kts | 341° |
| 2026-05-06 20:18 | -15.86686 | -66.04228 | 33928 ft | 455 kts | 341° |
| 2026-05-06 20:19 | -15.80662 | -66.06095 | 33922 ft | 455 kts | 341° |
| 2026-05-06 20:19 | -15.74594 | -66.07974 | 33923 ft | 455 kts | 341° |
| 2026-05-06 20:20 | -15.68527 | -66.09852 | 33923 ft | 455 kts | 341° |
| 2026-05-06 20:20 | -15.62459 | -66.11729 | 33919 ft | 455 kts | 341° |
| 2026-05-06 20:21 | -15.56429 | -66.13593 | 33924 ft | 455 kts | 341° |
| 2026-05-06 20:21 | -15.50363 | -66.15467 | 33919 ft | 455 kts | 341° |
| 2026-05-06 20:22 | -15.44298 | -66.17345 | 33920 ft | 455 kts | 341° |
| 2026-05-06 20:22 | -15.38244 | -66.19250 | 33913 ft | 455 kts | 341° |
| 2026-05-06 20:23 | -15.32189 | -66.21152 | 33914 ft | 454 kts | 341° |
| 2026-05-06 20:23 | -15.26194 | -66.23034 | 33905 ft | 453 kts | 341° |
| 2026-05-06 20:24 | -15.20162 | -66.24926 | 33909 ft | 453 kts | 341° |
| 2026-05-06 20:24 | -15.14125 | -66.26819 | 33903 ft | 453 kts | 341° |
| 2026-05-06 20:25 | -15.08086 | -66.28711 | 33903 ft | 453 kts | 341° |
| 2026-05-06 20:25 | -15.02089 | -66.30588 | 33898 ft | 453 kts | 341° |
| 2026-05-06 20:26 | -14.96063 | -66.32474 | 33902 ft | 452 kts | 341° |
| 2026-05-06 20:26 | -14.90039 | -66.34358 | 33903 ft | 452 kts | 341° |
| 2026-05-06 20:27 | -14.84014 | -66.36242 | 33900 ft | 452 kts | 341° |
| 2026-05-06 20:27 | -14.78030 | -66.38111 | 33900 ft | 452 kts | 341° |
| 2026-05-06 20:28 | -14.72006 | -66.39992 | 33901 ft | 452 kts | 341° |
| 2026-05-06 20:28 | -14.65981 | -66.41871 | 33900 ft | 453 kts | 342° |
| 2026-05-06 20:29 | -14.59952 | -66.43752 | 33900 ft | 452 kts | 342° |
| 2026-05-06 20:29 | -14.53969 | -66.45619 | 33900 ft | 452 kts | 342° |
| 2026-05-06 20:30 | -14.44933 | -66.48440 | 33903 ft | 452 kts | 342° |
| 2026-05-06 20:31 | -14.38911 | -66.50319 | 33898 ft | 452 kts | 342° |
| 2026-05-06 20:31 | -14.32883 | -66.52200 | 33902 ft | 453 kts | 342° |
| 2026-05-06 20:32 | -14.26897 | -66.54066 | 33900 ft | 452 kts | 342° |
| 2026-05-06 20:32 | -14.20870 | -66.55944 | 33899 ft | 452 kts | 342° |
| 2026-05-06 20:33 | -14.14843 | -66.57821 | 33904 ft | 452 kts | 342° |
| 2026-05-06 20:33 | -14.08825 | -66.59693 | 33902 ft | 451 kts | 342° |
| 2026-05-06 20:34 | -14.02850 | -66.61551 | 33900 ft | 452 kts | 342° |
| 2026-05-06 20:34 | -13.96835 | -66.63422 | 33902 ft | 452 kts | 342° |
| 2026-05-06 20:35 | -13.90819 | -66.65291 | 33901 ft | 452 kts | 342° |
| 2026-05-06 20:35 | -13.84804 | -66.67159 | 33900 ft | 452 kts | 342° |
| 2026-05-06 20:36 | -13.78829 | -66.69013 | 33900 ft | 451 kts | 342° |
| 2026-05-06 20:36 | -13.72812 | -66.70879 | 33901 ft | 452 kts | 342° |
| 2026-05-06 20:37 | -13.66784 | -66.72748 | 33903 ft | 453 kts | 342° |
| 2026-05-06 20:37 | -13.60757 | -66.74616 | 33903 ft | 452 kts | 342° |
| 2026-05-06 20:38 | -13.54769 | -66.76470 | 33900 ft | 453 kts | 342° |
| 2026-05-06 20:38 | -13.48738 | -66.78337 | 33903 ft | 452 kts | 342° |
| 2026-05-06 20:39 | -13.42708 | -66.80202 | 33903 ft | 453 kts | 342° |
| 2026-05-06 20:39 | -13.36678 | -66.82067 | 33904 ft | 452 kts | 342° |
| 2026-05-06 20:40 | -13.30691 | -66.83917 | 33900 ft | 452 kts | 342° |
| 2026-05-06 20:40 | -13.24662 | -66.85780 | 33899 ft | 452 kts | 342° |
| 2026-05-06 20:41 | -13.18632 | -66.87641 | 33897 ft | 453 kts | 342° |
| 2026-05-06 20:41 | -13.12600 | -66.89503 | 33901 ft | 453 kts | 342° |
| 2026-05-06 20:42 | -13.06615 | -66.91365 | 33902 ft | 452 kts | 342° |
| 2026-05-06 20:42 | -13.00599 | -66.93250 | 33903 ft | 452 kts | 342° |
| 2026-05-06 20:43 | -12.94583 | -66.95133 | 33900 ft | 452 kts | 342° |
| 2026-05-06 20:43 | -12.88568 | -66.97015 | 33901 ft | 452 kts | 342° |
| 2026-05-06 20:44 | -12.82591 | -66.98885 | 33900 ft | 452 kts | 342° |
| 2026-05-06 20:44 | -12.76574 | -67.00765 | 33900 ft | 452 kts | 342° |
| 2026-05-06 20:45 | -12.70556 | -67.02645 | 33903 ft | 452 kts | 342° |
| 2026-05-06 20:45 | -12.64537 | -67.04525 | 33903 ft | 452 kts | 342° |
| 2026-05-06 20:46 | -12.58556 | -67.06392 | 33909 ft | 452 kts | 342° |
| 2026-05-06 20:46 | -12.52535 | -67.08270 | 33906 ft | 452 kts | 342° |
| 2026-05-06 20:47 | -12.46516 | -67.10147 | 33906 ft | 452 kts | 342° |
| 2026-05-06 20:47 | -12.40483 | -67.12027 | 33908 ft | 454 kts | 342° |
| 2026-05-06 20:48 | -12.34433 | -67.13911 | 33908 ft | 454 kts | 342° |
| 2026-05-06 20:48 | -12.28427 | -67.15782 | 33908 ft | 454 kts | 342° |
| 2026-05-06 20:49 | -12.22378 | -67.17664 | 33911 ft | 454 kts | 342° |
| 2026-05-06 20:49 | -12.16330 | -67.19545 | 33912 ft | 454 kts | 342° |
| 2026-05-06 20:50 | -12.10277 | -67.21427 | 33911 ft | 455 kts | 342° |
| 2026-05-06 20:50 | -12.04252 | -67.23300 | 33911 ft | 455 kts | 342° |
| 2026-05-06 20:51 | -11.98204 | -67.25178 | 33914 ft | 454 kts | 342° |
| 2026-05-06 20:51 | -11.92157 | -67.27055 | 33912 ft | 454 kts | 342° |
| 2026-05-06 20:52 | -11.86105 | -67.28934 | 33916 ft | 454 kts | 342° |
| 2026-05-06 20:52 | -11.80099 | -67.30796 | 33920 ft | 454 kts | 343° |
| 2026-05-06 20:53 | -11.74050 | -67.32672 | 33922 ft | 454 kts | 343° |
| 2026-05-06 20:53 | -11.68005 | -67.34545 | 33921 ft | 454 kts | 343° |
| 2026-05-06 20:54 | -11.61998 | -67.36406 | 33918 ft | 454 kts | 343° |
| 2026-05-06 20:54 | -11.55953 | -67.38277 | 33917 ft | 454 kts | 343° |
| 2026-05-06 20:55 | -11.49904 | -67.40150 | 33917 ft | 454 kts | 343° |
| 2026-05-06 20:55 | -11.43861 | -67.42018 | 33923 ft | 454 kts | 343° |
| 2026-05-06 20:56 | -11.37862 | -67.43874 | 33920 ft | 453 kts | 343° |
| 2026-05-06 20:56 | -11.31825 | -67.45739 | 33920 ft | 453 kts | 343° |
| 2026-05-06 20:57 | -11.25783 | -67.47606 | 33919 ft | 453 kts | 343° |
| 2026-05-06 20:57 | -11.19749 | -67.49469 | 33920 ft | 453 kts | 343° |
| 2026-05-06 20:58 | -11.13712 | -67.51333 | 33917 ft | 454 kts | 343° |
| 2026-05-06 20:58 | -11.07683 | -67.53192 | 33922 ft | 457 kts | 343° |
| 2026-05-06 20:59 | -11.01596 | -67.55069 | 33924 ft | 456 kts | 343° |
| 2026-05-06 20:59 | -10.95549 | -67.56934 | 33918 ft | 453 kts | 343° |
| 2026-05-06 21:00 | -10.89510 | -67.58795 | 33920 ft | 454 kts | 343° |
| 2026-05-06 21:00 | -10.83511 | -67.60642 | 33922 ft | 453 kts | 343° |
| 2026-05-06 21:01 | -10.77475 | -67.62500 | 33922 ft | 453 kts | 343° |
| 2026-05-06 21:01 | -10.71434 | -67.64360 | 33920 ft | 454 kts | 343° |
| 2026-05-06 21:02 | -10.65393 | -67.66218 | 33918 ft | 454 kts | 343° |
| 2026-05-06 21:02 | -10.59394 | -67.68078 | 33921 ft | 454 kts | 343° |
| 2026-05-06 21:03 | -10.53357 | -67.69972 | 33995 ft | 455 kts | 343° |
| 2026-05-06 21:03 | -10.50338 | -67.70919 | 34256 ft | 454 kts | 343° |
| 2026-05-06 21:03 | -10.47317 | -67.71866 | 34459 ft | 454 kts | 343° |
| 2026-05-06 21:03 | -10.44293 | -67.72813 | 34644 ft | 455 kts | 343° |
| 2026-05-06 21:04 | -10.41267 | -67.73760 | 34860 ft | 455 kts | 343° |
| 2026-05-06 21:04 | -10.38281 | -67.74695 | 35091 ft | 455 kts | 343° |
| 2026-05-06 21:04 | -10.35263 | -67.75640 | 35336 ft | 454 kts | 343° |
| 2026-05-06 21:04 | -10.32249 | -67.76583 | 35586 ft | 452 kts | 343° |
| 2026-05-06 21:05 | -10.29246 | -67.77523 | 35836 ft | 451 kts | 343° |
| 2026-05-06 21:05 | -10.26249 | -67.78461 | 35938 ft | 451 kts | 343° |
| 2026-05-06 21:05 | -10.23257 | -67.79397 | 35915 ft | 449 kts | 343° |
| 2026-05-06 21:06 | -10.17308 | -67.81257 | 35918 ft | 448 kts | 343° |
| 2026-05-06 21:06 | -10.11390 | -67.83107 | 35915 ft | 449 kts | 343° |
| 2026-05-06 21:07 | -10.05400 | -67.84979 | 35918 ft | 451 kts | 343° |
| 2026-05-06 21:07 | -9.99407 | -67.86851 | 35911 ft | 451 kts | 343° |
| 2026-05-06 21:08 | -9.93454 | -67.88710 | 35910 ft | 451 kts | 343° |
| 2026-05-06 21:08 | -9.87451 | -67.90553 | 35911 ft | 450 kts | 345° |
| 2026-05-06 21:09 | -9.81409 | -67.92252 | 35919 ft | 451 kts | 345° |
| 2026-05-06 21:09 | -9.75356 | -67.93967 | 35925 ft | 453 kts | 345° |
| 2026-05-06 21:10 | -9.69289 | -67.95688 | 35919 ft | 453 kts | 345° |
| 2026-05-06 21:10 | -9.63264 | -67.97397 | 35921 ft | 453 kts | 345° |
| 2026-05-06 21:11 | -9.57198 | -67.99116 | 35923 ft | 453 kts | 345° |
| 2026-05-06 21:11 | -9.51131 | -68.00835 | 35923 ft | 453 kts | 345° |
| 2026-05-06 21:12 | -9.45103 | -68.02542 | 35923 ft | 453 kts | 345° |
| 2026-05-06 21:12 | -9.39025 | -68.04262 | 35923 ft | 454 kts | 345° |
| 2026-05-06 21:13 | -9.32944 | -68.05984 | 35927 ft | 454 kts | 345° |
| 2026-05-06 21:13 | -9.26867 | -68.07703 | 35924 ft | 454 kts | 345° |
| 2026-05-06 21:14 | -9.20803 | -68.09476 | 35927 ft | 454 kts | 344° |
| 2026-05-06 21:14 | -9.14790 | -68.11280 | 35925 ft | 454 kts | 344° |
| 2026-05-06 21:15 | -9.08732 | -68.13093 | 35925 ft | 454 kts | 344° |
| 2026-05-06 21:15 | -9.02676 | -68.14905 | 35927 ft | 454 kts | 344° |
| 2026-05-06 21:16 | -8.96621 | -68.16715 | 35930 ft | 454 kts | 344° |
| 2026-05-06 21:16 | -8.90602 | -68.18514 | 35931 ft | 454 kts | 344° |
| 2026-05-06 21:17 | -8.84547 | -68.20323 | 35926 ft | 454 kts | 344° |
| 2026-05-06 21:17 | -8.78495 | -68.22131 | 35925 ft | 453 kts | 344° |
| 2026-05-06 21:18 | -8.72431 | -68.23942 | 35929 ft | 455 kts | 344° |
| 2026-05-06 21:18 | -8.66401 | -68.25742 | 35928 ft | 455 kts | 344° |
| 2026-05-06 21:19 | -8.60327 | -68.27554 | 35926 ft | 455 kts | 344° |
| 2026-05-06 21:19 | -8.54256 | -68.29365 | 35929 ft | 455 kts | 344° |
| 2026-05-06 21:20 | -8.48181 | -68.31176 | 35929 ft | 455 kts | 344° |
| 2026-05-06 21:20 | -8.42150 | -68.32974 | 35930 ft | 455 kts | 344° |
| 2026-05-06 21:21 | -8.36075 | -68.34785 | 35927 ft | 455 kts | 344° |
| 2026-05-06 21:21 | -8.29997 | -68.36595 | 35927 ft | 455 kts | 344° |
| 2026-05-06 21:22 | -8.23961 | -68.38393 | 35927 ft | 455 kts | 344° |
| 2026-05-06 21:22 | -8.17883 | -68.40203 | 35931 ft | 455 kts | 344° |
| 2026-05-06 21:23 | -8.11808 | -68.42011 | 35934 ft | 455 kts | 344° |
| 2026-05-06 21:23 | -8.05724 | -68.43820 | 35932 ft | 456 kts | 344° |
| 2026-05-06 21:24 | -7.99680 | -68.45618 | 35931 ft | 456 kts | 344° |
| 2026-05-06 21:24 | -7.93591 | -68.47429 | 35931 ft | 456 kts | 344° |
| 2026-05-06 21:25 | -7.87504 | -68.49238 | 35929 ft | 456 kts | 344° |
| 2026-05-06 21:25 | -7.81414 | -68.51048 | 35930 ft | 456 kts | 344° |
| 2026-05-06 21:26 | -7.75328 | -68.52855 | 35928 ft | 456 kts | 344° |
| 2026-05-06 21:26 | -7.69264 | -68.54657 | 35935 ft | 458 kts | 344° |
| 2026-05-06 21:27 | -7.63153 | -68.56470 | 35937 ft | 458 kts | 344° |
| 2026-05-06 21:27 | -7.57041 | -68.58279 | 35935 ft | 458 kts | 344° |
| 2026-05-06 21:28 | -7.50931 | -68.60087 | 35931 ft | 458 kts | 344° |
| 2026-05-06 21:28 | -7.44860 | -68.61882 | 35934 ft | 458 kts | 344° |
| 2026-05-06 21:29 | -7.38747 | -68.63690 | 35934 ft | 458 kts | 344° |
| 2026-05-06 21:29 | -7.32637 | -68.65496 | 35930 ft | 458 kts | 344° |
| 2026-05-06 21:30 | -7.26524 | -68.67302 | 35934 ft | 458 kts | 344° |
| 2026-05-06 21:30 | -7.20454 | -68.69096 | 35934 ft | 458 kts | 344° |
| 2026-05-06 21:31 | -7.14341 | -68.70902 | 35939 ft | 458 kts | 344° |
| 2026-05-06 21:31 | -7.08226 | -68.72707 | 35936 ft | 458 kts | 344° |
| 2026-05-06 21:32 | -7.02117 | -68.74510 | 35937 ft | 457 kts | 344° |
| 2026-05-06 21:32 | -6.92999 | -68.77201 | 35936 ft | 457 kts | 344° |
| 2026-05-06 21:33 | -6.86893 | -68.79002 | 35935 ft | 457 kts | 344° |
| 2026-05-06 21:33 | -6.80786 | -68.80803 | 35936 ft | 457 kts | 344° |
| 2026-05-06 21:34 | -6.74677 | -68.82604 | 35936 ft | 457 kts | 344° |
| 2026-05-06 21:34 | -6.68606 | -68.84394 | 35933 ft | 459 kts | 345° |
| 2026-05-06 21:35 | -6.62478 | -68.86196 | 35928 ft | 459 kts | 345° |
| 2026-05-06 21:35 | -6.56355 | -68.87997 | 35933 ft | 458 kts | 344° |
| 2026-05-06 21:36 | -6.50239 | -68.89810 | 35939 ft | 458 kts | 344° |
| 2026-05-06 21:36 | -6.44164 | -68.91610 | 35937 ft | 458 kts | 344° |
| 2026-05-06 21:37 | -6.38047 | -68.93421 | 35939 ft | 458 kts | 344° |
| 2026-05-06 21:37 | -6.31922 | -68.95234 | 35938 ft | 460 kts | 344° |
| 2026-05-06 21:38 | -6.25787 | -68.97050 | 35938 ft | 460 kts | 344° |
| 2026-05-06 21:38 | -6.19693 | -68.98852 | 35933 ft | 460 kts | 344° |
| 2026-05-06 21:39 | -6.13555 | -69.00668 | 35942 ft | 460 kts | 344° |
| 2026-05-06 21:39 | -6.07414 | -69.02484 | 36096 ft | 461 kts | 344° |
| 2026-05-06 21:40 | -6.04340 | -69.03393 | 36292 ft | 460 kts | 344° |
| 2026-05-06 21:40 | -6.01267 | -69.04302 | 36517 ft | 460 kts | 344° |
| 2026-05-06 21:40 | -5.98199 | -69.05209 | 36724 ft | 460 kts | 344° |
| 2026-05-06 21:40 | -5.95132 | -69.06115 | 36910 ft | 459 kts | 344° |
| 2026-05-06 21:41 | -5.89047 | -69.07913 | 36934 ft | 458 kts | 344° |
| 2026-05-06 21:41 | -5.82949 | -69.09715 | 36943 ft | 457 kts | 344° |
| 2026-05-06 21:42 | -5.76843 | -69.11519 | 36941 ft | 457 kts | 344° |
| 2026-05-06 21:42 | -5.70737 | -69.13321 | 36938 ft | 457 kts | 344° |
| 2026-05-06 21:43 | -5.64667 | -69.15113 | 36938 ft | 459 kts | 344° |
| 2026-05-06 21:43 | -5.58535 | -69.16924 | 36938 ft | 459 kts | 344° |
| 2026-05-06 21:44 | -5.52399 | -69.18734 | 36942 ft | 459 kts | 344° |
| 2026-05-06 21:44 | -5.46270 | -69.20544 | 36939 ft | 459 kts | 344° |
| 2026-05-06 21:45 | -5.40148 | -69.22349 | 36942 ft | 458 kts | 344° |
| 2026-05-06 21:45 | -5.34071 | -69.24142 | 36945 ft | 459 kts | 344° |
| 2026-05-06 21:46 | -5.27936 | -69.25950 | 36944 ft | 461 kts | 344° |
| 2026-05-06 21:46 | -5.21785 | -69.27764 | 36942 ft | 461 kts | 344° |
| 2026-05-06 21:47 | -5.15635 | -69.29577 | 36941 ft | 461 kts | 344° |
| 2026-05-06 21:47 | -5.09484 | -69.31389 | 36942 ft | 461 kts | 344° |
| 2026-05-06 21:48 | -5.03375 | -69.33189 | 36944 ft | 461 kts | 344° |
| 2026-05-06 21:48 | -4.97220 | -69.35002 | 36945 ft | 461 kts | 344° |
| 2026-05-06 21:49 | -4.91059 | -69.36816 | 36943 ft | 462 kts | 344° |
| 2026-05-06 21:49 | -4.84936 | -69.38619 | 36941 ft | 462 kts | 344° |
| 2026-05-06 21:50 | -4.78772 | -69.40435 | 36943 ft | 462 kts | 344° |
| 2026-05-06 21:50 | -4.72606 | -69.42249 | 36944 ft | 462 kts | 344° |
| 2026-05-06 21:51 | -4.66445 | -69.44086 | 36945 ft | 462 kts | 343° |
| 2026-05-06 21:51 | -4.60329 | -69.45919 | 36946 ft | 461 kts | 344° |
| 2026-05-06 21:52 | -4.54180 | -69.47762 | 36943 ft | 461 kts | 344° |
| 2026-05-06 21:52 | -4.48033 | -69.49604 | 36944 ft | 461 kts | 343° |
| 2026-05-06 21:53 | -4.42925 | -69.51135 | 36945 ft | 461 kts | 344° |
| 2026-05-06 21:53 | -4.35784 | -69.53274 | 36938 ft | 461 kts | 344° |
| 2026-05-06 21:54 | -4.29648 | -69.55111 | 36942 ft | 460 kts | 344° |
| 2026-05-06 21:54 | -4.24551 | -69.56638 | 36944 ft | 461 kts | 344° |
| 2026-05-06 21:55 | -4.18395 | -69.58481 | 36942 ft | 462 kts | 344° |
| 2026-05-06 21:55 | -4.11239 | -69.60625 | 36942 ft | 462 kts | 343° |
| 2026-05-06 21:56 | -4.05084 | -69.62470 | 36942 ft | 462 kts | 344° |
| 2026-05-06 21:56 | -3.99967 | -69.64004 | 36944 ft | 462 kts | 343° |
| 2026-05-06 21:57 | -3.93812 | -69.65848 | 36944 ft | 462 kts | 344° |
| 2026-05-06 21:57 | -3.87653 | -69.67694 | 36944 ft | 462 kts | 343° |
| 2026-05-06 21:58 | -3.81498 | -69.69538 | 36943 ft | 462 kts | 344° |
| 2026-05-06 21:58 | -3.75385 | -69.71369 | 36944 ft | 462 kts | 344° |
| 2026-05-06 21:59 | -3.69229 | -69.73213 | 36944 ft | 462 kts | 344° |
| 2026-05-06 21:59 | -3.63072 | -69.75057 | 36944 ft | 462 kts | 343° |
| 2026-05-06 22:00 | -3.56915 | -69.76901 | 36945 ft | 462 kts | 343° |
| 2026-05-06 22:00 | -3.50790 | -69.78734 | 36948 ft | 463 kts | 343° |
| 2026-05-06 22:01 | -3.44609 | -69.80558 | 36946 ft | 463 kts | 344° |
| 2026-05-06 22:01 | -3.38433 | -69.82374 | 36944 ft | 463 kts | 344° |
| 2026-05-06 22:02 | -3.32253 | -69.84193 | 36944 ft | 463 kts | 344° |
| 2026-05-06 22:02 | -3.26115 | -69.85997 | 36944 ft | 463 kts | 344° |
| 2026-05-06 22:03 | -3.19935 | -69.87815 | 36945 ft | 462 kts | 343° |
| 2026-05-06 22:03 | -3.13759 | -69.89631 | 36946 ft | 463 kts | 343° |
| 2026-05-06 22:04 | -3.07580 | -69.91447 | 36940 ft | 463 kts | 343° |
| 2026-05-06 22:04 | -3.01404 | -69.93262 | 36942 ft | 463 kts | 343° |